sensor_id;sensor_type;location;lat;lon;timestamp;pressure;altitude;pressure_sealevel;temperature;humidity
29569;BME280;16501;51.462;14.346;2023-09-19T00:14:36;99421.41;;;19.04;100.00
29569;BME280;16501;51.462;14.346;2023-09-19T00:17:02;99435.88;;;19.14;100.00
29569;BME280;16501;51.462;14.346;2023-09-19T00:19:34;99443.66;;;19.13;100.00
29569;BME280;16501;51.462;14.346;2023-09-19T00:21:59;99431.34;;;19.11;100.00
29569;BME280;16501;51.462;14.346;2023-09-19T00:24:24;99435.47;;;19.10;100.00
29569;BME280;16501;51.462;14.346;2023-09-19T00:26:52;99438.13;;;19.08;100.00
29569;BME280;16501;51.462;14.346;2023-09-19T00:29:17;99425.16;;;18.99;100.00
29569;BME280;16501;51.462;14.346;2023-09-19T00:31:45;99437.13;;;19.05;100.00
29569;BME280;16501;51.462;14.346;2023-09-19T00:34:10;99438.47;;;19.04;100.00
29569;BME280;16501;51.462;14.346;2023-09-19T00:36:37;99431.25;;;19.03;100.00
29569;BME280;16501;51.462;14.346;2023-09-19T00:39:04;99428.19;;;19.01;100.00
29569;BME280;16501;51.462;14.346;2023-09-19T00:41:33;99421.25;;;18.89;100.00
29569;BME280;16501;51.462;14.346;2023-09-19T00:44:00;99409.00;;;18.80;100.00
29569;BME280;16501;51.462;14.346;2023-09-19T00:46:27;99412.88;;;18.83;100.00
29569;BME280;16501;51.462;14.346;2023-09-19T00:48:52;99406.31;;;18.75;100.00
29569;BME280;16501;51.462;14.346;2023-09-19T00:51:17;99393.00;;;18.70;100.00
29569;BME280;16501;51.462;14.346;2023-09-19T00:53:46;99398.88;;;18.72;100.00
29569;BME280;16501;51.462;14.346;2023-09-19T00:56:12;99411.25;;;18.74;100.00
29569;BME280;16501;51.462;14.346;2023-09-19T00:58:38;99402.81;;;18.69;100.00
29569;BME280;16501;51.462;14.346;2023-09-19T01:01:03;99410.13;;;18.77;100.00
29569;BME280;16501;51.462;14.346;2023-09-19T01:03:32;99411.25;;;18.74;100.00
29569;BME280;16501;51.462;14.346;2023-09-19T01:05:59;99404.38;;;18.70;100.00
29569;BME280;16501;51.462;14.346;2023-09-19T01:08:25;99384.75;;;18.58;100.00
29569;BME280;16501;51.462;14.346;2023-09-19T01:11:00;99387.66;;;18.66;100.00
29569;BME280;16501;51.462;14.346;2023-09-19T01:13:47;99386.47;;;18.61;100.00
29569;BME280;16501;51.462;14.346;2023-09-19T01:16:28;99397.16;;;18.69;100.00
29569;BME280;16501;51.462;14.346;2023-09-19T01:21:54;99387.16;;;18.54;100.00
29569;BME280;16501;51.462;14.346;2023-09-19T01:30:40;99383.25;;;18.44;100.00
29569;BME280;16501;51.462;14.346;2023-09-19T01:33:08;99377.06;;;18.32;100.00
29569;BME280;16501;51.462;14.346;2023-09-19T01:35:39;99391.09;;;18.51;100.00
29569;BME280;16501;51.462;14.346;2023-09-19T01:38:08;99380.13;;;18.34;100.00
29569;BME280;16501;51.462;14.346;2023-09-19T01:40:58;99403.03;;;18.50;100.00
29569;BME280;16501;51.462;14.346;2023-09-19T01:43:33;99404.53;;;18.51;100.00
29569;BME280;16501;51.462;14.346;2023-09-19T01:46:13;99410.19;;;18.51;100.00
29569;BME280;16501;51.462;14.346;2023-09-19T01:54:30;99386.69;;;18.29;100.00
29569;BME280;16501;51.462;14.346;2023-09-19T01:57:09;99417.31;;;18.44;100.00
29569;BME280;16501;51.462;14.346;2023-09-19T01:59:45;99398.88;;;18.37;100.00
29569;BME280;16501;51.462;14.346;2023-09-19T02:02:13;99413.41;;;18.34;100.00
29569;BME280;16501;51.462;14.346;2023-09-19T02:04:39;99406.53;;;18.29;100.00
29569;BME280;16501;51.462;14.346;2023-09-19T02:07:05;99403.81;;;18.23;100.00
29569;BME280;16501;51.462;14.346;2023-09-19T02:09:31;99403.16;;;18.17;100.00
29569;BME280;16501;51.462;14.346;2023-09-19T02:11:56;99388.13;;;18.09;100.00
29569;BME280;16501;51.462;14.346;2023-09-19T02:14:21;99404.47;;;18.16;100.00
29569;BME280;16501;51.462;14.346;2023-09-19T02:16:47;99396.63;;;18.09;100.00
29569;BME280;16501;51.462;14.346;2023-09-19T02:19:13;99396.75;;;18.03;100.00
29569;BME280;16501;51.462;14.346;2023-09-19T02:21:38;99427.28;;;18.11;100.00
29569;BME280;16501;51.462;14.346;2023-09-19T02:24:06;99404.06;;;18.12;100.00
29569;BME280;16501;51.462;14.346;2023-09-19T02:26:33;99403.97;;;18.04;100.00
29569;BME280;16501;51.462;14.346;2023-09-19T02:29:02;99401.66;;;18.03;100.00
29569;BME280;16501;51.462;14.346;2023-09-19T02:31:30;99407.22;;;18.08;100.00
29569;BME280;16501;51.462;14.346;2023-09-19T02:33:56;99389.03;;;17.90;100.00
29569;BME280;16501;51.462;14.346;2023-09-19T02:36:21;99421.06;;;18.12;100.00
29569;BME280;16501;51.462;14.346;2023-09-19T02:38:48;99413.44;;;18.07;100.00
29569;BME280;16501;51.462;14.346;2023-09-19T02:41:13;99408.00;;;17.96;100.00
29569;BME280;16501;51.462;14.346;2023-09-19T02:43:38;99400.13;;;17.88;100.00
29569;BME280;16501;51.462;14.346;2023-09-19T02:46:04;99418.56;;;17.95;100.00
29569;BME280;16501;51.462;14.346;2023-09-19T02:48:29;99404.28;;;17.87;100.00
29569;BME280;16501;51.462;14.346;2023-09-19T02:50:54;99431.88;;;18.00;100.00
29569;BME280;16501;51.462;14.346;2023-09-19T02:53:19;99421.84;;;17.86;100.00
29569;BME280;16501;51.462;14.346;2023-09-19T02:55:46;99426.44;;;17.89;100.00
29569;BME280;16501;51.462;14.346;2023-09-19T02:58:11;99452.81;;;17.97;100.00
29569;BME280;16501;51.462;14.346;2023-09-19T03:00:37;99453.38;;;17.96;100.00
29569;BME280;16501;51.462;14.346;2023-09-19T03:03:03;99425.19;;;17.84;100.00
29569;BME280;16501;51.462;14.346;2023-09-19T03:05:28;99429.09;;;17.81;100.00
29569;BME280;16501;51.462;14.346;2023-09-19T03:07:57;99434.72;;;17.87;100.00
29569;BME280;16501;51.462;14.346;2023-09-19T03:10:25;99418.00;;;17.70;100.00
29569;BME280;16501;51.462;14.346;2023-09-19T03:12:51;99420.16;;;17.77;100.00
29569;BME280;16501;51.462;14.346;2023-09-19T03:15:17;99439.06;;;17.88;100.00
29569;BME280;16501;51.462;14.346;2023-09-19T03:17:44;99419.16;;;17.75;100.00
29569;BME280;16501;51.462;14.346;2023-09-19T03:20:10;99440.41;;;17.87;100.00
29569;BME280;16501;51.462;14.346;2023-09-19T03:22:38;99435.56;;;17.82;100.00
29569;BME280;16501;51.462;14.346;2023-09-19T03:25:03;99440.91;;;17.85;100.00
29569;BME280;16501;51.462;14.346;2023-09-19T03:27:33;99433.34;;;17.75;100.00
29569;BME280;16501;51.462;14.346;2023-09-19T03:29:58;99445.91;;;17.79;100.00
29569;BME280;16501;51.462;14.346;2023-09-19T03:32:23;99461.16;;;17.76;100.00
29569;BME280;16501;51.462;14.346;2023-09-19T03:34:49;99426.91;;;17.61;100.00
29569;BME280;16501;51.462;14.346;2023-09-19T03:37:14;99446.13;;;17.68;100.00
29569;BME280;16501;51.462;14.346;2023-09-19T03:39:39;99444.91;;;17.63;100.00
29569;BME280;16501;51.462;14.346;2023-09-19T03:42:05;99450.13;;;17.59;100.00
29569;BME280;16501;51.462;14.346;2023-09-19T03:44:32;99441.91;;;17.42;100.00
29569;BME280;16501;51.462;14.346;2023-09-19T03:46:57;99450.84;;;17.46;100.00
29569;BME280;16501;51.462;14.346;2023-09-19T03:49:22;99445.97;;;17.14;100.00
29569;BME280;16501;51.462;14.346;2023-09-19T03:51:48;99458.97;;;17.23;100.00
29569;BME280;16501;51.462;14.346;2023-09-19T03:54:13;99456.34;;;17.25;100.00
29569;BME280;16501;51.462;14.346;2023-09-19T03:56:39;99455.91;;;17.21;100.00
29569;BME280;16501;51.462;14.346;2023-09-19T03:59:04;99440.97;;;17.21;100.00
29569;BME280;16501;51.462;14.346;2023-09-19T04:01:29;99450.84;;;17.33;100.00
29569;BME280;16501;51.462;14.346;2023-09-19T04:03:57;99439.56;;;17.27;100.00
29569;BME280;16501;51.462;14.346;2023-09-19T04:06:23;99454.75;;;17.30;100.00
29569;BME280;16501;51.462;14.346;2023-09-19T04:08:48;99450.28;;;17.34;100.00
29569;BME280;16501;51.462;14.346;2023-09-19T04:11:14;99463.47;;;17.32;100.00
29569;BME280;16501;51.462;14.346;2023-09-19T04:13:39;99438.75;;;17.13;100.00
29569;BME280;16501;51.462;14.346;2023-09-19T04:16:04;99447.94;;;17.20;100.00
29569;BME280;16501;51.462;14.346;2023-09-19T04:18:32;99441.47;;;17.06;100.00
29569;BME280;16501;51.462;14.346;2023-09-19T04:20:58;99463.50;;;17.13;100.00
29569;BME280;16501;51.462;14.346;2023-09-19T04:23:24;99452.25;;;17.07;100.00
29569;BME280;16501;51.462;14.346;2023-09-19T04:25:50;99460.66;;;17.13;100.00
29569;BME280;16501;51.462;14.346;2023-09-19T04:28:15;99452.50;;;17.09;100.00
29569;BME280;16501;51.462;14.346;2023-09-19T04:30:41;99435.00;;;16.92;100.00
29569;BME280;16501;51.462;14.346;2023-09-19T04:33:06;99438.03;;;16.94;100.00
29569;BME280;16501;51.462;14.346;2023-09-19T04:35:32;99465.09;;;17.08;100.00
29569;BME280;16501;51.462;14.346;2023-09-19T04:37:57;99452.59;;;16.85;100.00
29569;BME280;16501;51.462;14.346;2023-09-19T04:40:23;99457.50;;;16.84;100.00
29569;BME280;16501;51.462;14.346;2023-09-19T04:42:56;99473.88;;;16.91;100.00
29569;BME280;16501;51.462;14.346;2023-09-19T04:45:22;99469.06;;;16.86;100.00
29569;BME280;16501;51.462;14.346;2023-09-19T04:47:48;99433.28;;;16.64;100.00
29569;BME280;16501;51.462;14.346;2023-09-19T04:50:13;99444.75;;;16.72;100.00
29569;BME280;16501;51.462;14.346;2023-09-19T04:52:42;99445.06;;;16.68;100.00
29569;BME280;16501;51.462;14.346;2023-09-19T04:55:13;99475.69;;;16.89;100.00
29569;BME280;16501;51.462;14.346;2023-09-19T04:57:50;99473.88;;;16.91;100.00
29569;BME280;16501;51.462;14.346;2023-09-19T05:00:22;99478.69;;;16.96;100.00
29569;BME280;16501;51.462;14.346;2023-09-19T05:03:04;99473.34;;;16.93;100.00
29569;BME280;16501;51.462;14.346;2023-09-19T05:05:31;99479.84;;;16.88;100.00
29569;BME280;16501;51.462;14.346;2023-09-19T05:07:56;99478.91;;;16.99;100.00
29569;BME280;16501;51.462;14.346;2023-09-19T05:10:21;99474.63;;;16.92;100.00
29569;BME280;16501;51.462;14.346;2023-09-19T05:12:47;99487.50;;;16.93;100.00
29569;BME280;16501;51.462;14.346;2023-09-19T05:15:14;99507.22;;;16.99;100.00
29569;BME280;16501;51.462;14.346;2023-09-19T05:17:42;99504.06;;;16.83;100.00
29569;BME280;16501;51.462;14.346;2023-09-19T05:20:12;99506.13;;;16.83;100.00
29569;BME280;16501;51.462;14.346;2023-09-19T05:22:50;99514.81;;;16.90;100.00
29569;BME280;16501;51.462;14.346;2023-09-19T05:25:15;99505.66;;;16.78;100.00
29569;BME280;16501;51.462;14.346;2023-09-19T05:27:43;99519.22;;;16.86;100.00
29569;BME280;16501;51.462;14.346;2023-09-19T05:30:08;99511.47;;;16.67;100.00
29569;BME280;16501;51.462;14.346;2023-09-19T05:32:34;99528.84;;;16.77;100.00
29569;BME280;16501;51.462;14.346;2023-09-19T05:34:59;99535.75;;;16.82;100.00
29569;BME280;16501;51.462;14.346;2023-09-19T05:37:24;99532.16;;;16.81;100.00
29569;BME280;16501;51.462;14.346;2023-09-19T05:39:51;99550.00;;;16.95;100.00
29569;BME280;16501;51.462;14.346;2023-09-19T05:42:16;99544.97;;;16.88;100.00
29569;BME280;16501;51.462;14.346;2023-09-19T05:44:42;99547.00;;;16.87;100.00
29569;BME280;16501;51.462;14.346;2023-09-19T05:47:07;99530.34;;;16.84;100.00
29569;BME280;16501;51.462;14.346;2023-09-19T05:49:35;99541.69;;;16.78;100.00
29569;BME280;16501;51.462;14.346;2023-09-19T05:52:04;99541.34;;;16.87;100.00
29569;BME280;16501;51.462;14.346;2023-09-19T05:54:29;99556.66;;;16.98;100.00
29569;BME280;16501;51.462;14.346;2023-09-19T05:56:55;99545.19;;;16.90;100.00
29569;BME280;16501;51.462;14.346;2023-09-19T05:59:20;99565.38;;;17.00;100.00
29569;BME280;16501;51.462;14.346;2023-09-19T06:01:45;99560.03;;;16.96;100.00
29569;BME280;16501;51.462;14.346;2023-09-19T06:04:12;99556.97;;;16.94;100.00
29569;BME280;16501;51.462;14.346;2023-09-19T06:06:38;99579.63;;;16.94;100.00
29569;BME280;16501;51.462;14.346;2023-09-19T06:09:06;99574.44;;;16.98;100.00
29569;BME280;16501;51.462;14.346;2023-09-19T06:11:31;99571.34;;;16.96;100.00
29569;BME280;16501;51.462;14.346;2023-09-19T06:14:03;99575.94;;;16.99;100.00
29569;BME280;16501;51.462;14.346;2023-09-19T06:16:29;99577.28;;;16.98;100.00
29569;BME280;16501;51.462;14.346;2023-09-19T06:18:55;99569.00;;;17.00;100.00
29569;BME280;16501;51.462;14.346;2023-09-19T06:21:22;99586.75;;;17.01;100.00
29569;BME280;16501;51.462;14.346;2023-09-19T06:23:47;99571.84;;;17.00;100.00
29569;BME280;16501;51.462;14.346;2023-09-19T06:26:12;99584.84;;;17.09;100.00
29569;BME280;16501;51.462;14.346;2023-09-19T06:28:38;99592.81;;;17.10;100.00
29569;BME280;16501;51.462;14.346;2023-09-19T06:31:03;99603.34;;;17.10;100.00
29569;BME280;16501;51.462;14.346;2023-09-19T06:33:32;99609.56;;;17.08;100.00
29569;BME280;16501;51.462;14.346;2023-09-19T06:35:58;99609.81;;;17.10;100.00
29569;BME280;16501;51.462;14.346;2023-09-19T06:38:25;99618.00;;;17.14;100.00
29569;BME280;16501;51.462;14.346;2023-09-19T06:40:50;99621.50;;;17.20;100.00
29569;BME280;16501;51.462;14.346;2023-09-19T06:43:16;99614.38;;;17.13;100.00
29569;BME280;16501;51.462;14.346;2023-09-19T06:45:41;99602.75;;;16.98;100.00
29569;BME280;16501;51.462;14.346;2023-09-19T06:48:07;99633.78;;;17.28;100.00
29569;BME280;16501;51.462;14.346;2023-09-19T06:50:34;99607.88;;;17.19;100.00
29569;BME280;16501;51.462;14.346;2023-09-19T06:53:01;99634.00;;;17.49;100.00
29569;BME280;16501;51.462;14.346;2023-09-19T06:55:27;99625.94;;;17.53;100.00
29569;BME280;16501;51.462;14.346;2023-09-19T06:57:53;99657.19;;;17.67;100.00
29569;BME280;16501;51.462;14.346;2023-09-19T07:00:19;99656.50;;;17.61;100.00
29569;BME280;16501;51.462;14.346;2023-09-19T07:03:06;99664.78;;;17.59;100.00
29569;BME280;16501;51.462;14.346;2023-09-19T07:05:37;99669.25;;;17.54;100.00
29569;BME280;16501;51.462;14.346;2023-09-19T07:08:04;99667.03;;;17.47;100.00
29569;BME280;16501;51.462;14.346;2023-09-19T07:10:30;99671.81;;;17.52;100.00
29569;BME280;16501;51.462;14.346;2023-09-19T07:12:59;99677.66;;;17.60;100.00
29569;BME280;16501;51.462;14.346;2023-09-19T07:15:25;99679.97;;;17.61;100.00
29569;BME280;16501;51.462;14.346;2023-09-19T07:17:51;99686.56;;;17.69;100.00
29569;BME280;16501;51.462;14.346;2023-09-19T07:20:20;99686.31;;;17.67;100.00
29569;BME280;16501;51.462;14.346;2023-09-19T07:22:46;99678.41;;;17.60;100.00
29569;BME280;16501;51.462;14.346;2023-09-19T07:25:12;99683.56;;;17.62;100.00
29569;BME280;16501;51.462;14.346;2023-09-19T07:27:40;99682.78;;;17.61;100.00
29569;BME280;16501;51.462;14.346;2023-09-19T07:30:05;99670.38;;;17.45;100.00
29569;BME280;16501;51.462;14.346;2023-09-19T07:32:31;99669.16;;;17.60;100.00
29569;BME280;16501;51.462;14.346;2023-09-19T07:34:56;99699.34;;;17.95;100.00
29569;BME280;16501;51.462;14.346;2023-09-19T07:37:21;99695.75;;;17.95;100.00
29569;BME280;16501;51.462;14.346;2023-09-19T07:39:47;99703.16;;;18.17;100.00
29569;BME280;16501;51.462;14.346;2023-09-19T07:42:12;99713.28;;;18.12;100.00
29569;BME280;16501;51.462;14.346;2023-09-19T07:44:43;99677.19;;;17.94;100.00
29569;BME280;16501;51.462;14.346;2023-09-19T07:47:08;99707.38;;;18.10;100.00
29569;BME280;16501;51.462;14.346;2023-09-19T07:49:33;99695.00;;;17.94;100.00
29569;BME280;16501;51.462;14.346;2023-09-19T07:51:59;99696.66;;;18.03;100.00
29569;BME280;16501;51.462;14.346;2023-09-19T07:54:24;99691.66;;;18.09;100.00
29569;BME280;16501;51.462;14.346;2023-09-19T07:56:50;99718.72;;;18.42;100.00
29569;BME280;16501;51.462;14.346;2023-09-19T07:59:15;99719.75;;;18.58;100.00
29569;BME280;16501;51.462;14.346;2023-09-19T08:01:41;99710.91;;;18.62;100.00
29569;BME280;16501;51.462;14.346;2023-09-19T08:04:07;99723.81;;;18.76;100.00
29569;BME280;16501;51.462;14.346;2023-09-19T08:06:32;99731.41;;;18.87;99.25
29569;BME280;16501;51.462;14.346;2023-09-19T08:08:57;99739.25;;;18.94;98.82
29569;BME280;16501;51.462;14.346;2023-09-19T08:11:23;99738.28;;;19.05;96.57
29569;BME280;16501;51.462;14.346;2023-09-19T08:13:49;99728.66;;;18.95;95.87
29569;BME280;16501;51.462;14.346;2023-09-19T08:16:15;99727.91;;;19.08;94.58
29569;BME280;16501;51.462;14.346;2023-09-19T08:18:41;99733.59;;;19.08;93.71
29569;BME280;16501;51.462;14.346;2023-09-19T08:21:07;99726.81;;;18.97;92.00
29569;BME280;16501;51.462;14.346;2023-09-19T08:23:39;99747.81;;;19.21;91.60
29569;BME280;16501;51.462;14.346;2023-09-19T08:26:05;99750.31;;;19.38;89.26
29569;BME280;16501;51.462;14.346;2023-09-19T08:28:34;99743.63;;;19.49;90.92
29569;BME280;16501;51.462;14.346;2023-09-19T08:31:03;99731.78;;;19.71;89.48
29569;BME280;16501;51.462;14.346;2023-09-19T08:33:31;99748.22;;;19.78;87.82
29569;BME280;16501;51.462;14.346;2023-09-19T08:35:56;99755.66;;;20.16;85.91
29569;BME280;16501;51.462;14.346;2023-09-19T08:38:21;99735.75;;;20.03;84.09
29569;BME280;16501;51.462;14.346;2023-09-19T08:40:47;99747.81;;;20.30;83.58
29569;BME280;16501;51.462;14.346;2023-09-19T08:43:12;99729.97;;;20.29;80.70
29569;BME280;16501;51.462;14.346;2023-09-19T08:45:38;99772.16;;;20.52;75.59
29569;BME280;16501;51.462;14.346;2023-09-19T08:48:17;99759.16;;;20.43;75.95
29569;BME280;16501;51.462;14.346;2023-09-19T08:50:51;99755.16;;;20.25;76.06
29569;BME280;16501;51.462;14.346;2023-09-19T08:55:57;99757.03;;;19.88;66.94
29569;BME280;16501;51.462;14.346;2023-09-19T08:58:31;99782.34;;;19.78;66.05
29569;BME280;16501;51.462;14.346;2023-09-19T09:01:00;99775.75;;;19.84;67.51
29569;BME280;16501;51.462;14.346;2023-09-19T09:03:29;99773.69;;;19.57;69.50
29569;BME280;16501;51.462;14.346;2023-09-19T09:05:57;99762.97;;;19.50;71.42
29569;BME280;16501;51.462;14.346;2023-09-19T09:08:23;99774.03;;;19.67;69.84
29569;BME280;16501;51.462;14.346;2023-09-19T09:10:50;99776.44;;;19.76;68.37
29569;BME280;16501;51.462;14.346;2023-09-19T09:13:16;99771.06;;;19.73;68.59
29569;BME280;16501;51.462;14.346;2023-09-19T09:15:42;99766.16;;;19.73;68.60
29569;BME280;16501;51.462;14.346;2023-09-19T09:18:09;99783.97;;;19.87;69.87
29569;BME280;16501;51.462;14.346;2023-09-19T09:20:35;99786.03;;;20.00;70.36
29569;BME280;16501;51.462;14.346;2023-09-19T09:23:01;99784.94;;;20.03;67.93
29569;BME280;16501;51.462;14.346;2023-09-19T09:25:51;99777.00;;;20.09;67.26
29569;BME280;16501;51.462;14.346;2023-09-19T09:28:24;99774.94;;;20.10;67.89
29569;BME280;16501;51.462;14.346;2023-09-19T09:30:49;99791.06;;;20.28;67.88
29569;BME280;16501;51.462;14.346;2023-09-19T09:33:16;99793.06;;;20.20;66.77
29569;BME280;16501;51.462;14.346;2023-09-19T09:35:56;99794.94;;;20.18;66.55
29569;BME280;16501;51.462;14.346;2023-09-19T09:38:27;99785.41;;;20.49;65.69
29569;BME280;16501;51.462;14.346;2023-09-19T09:40:56;99799.28;;;20.32;65.76
29569;BME280;16501;51.462;14.346;2023-09-19T09:43:37;99783.91;;;20.14;65.38
29569;BME280;16501;51.462;14.346;2023-09-19T09:46:21;99791.09;;;20.15;65.08
29569;BME280;16501;51.462;14.346;2023-09-19T09:48:47;99807.56;;;20.09;64.29
29569;BME280;16501;51.462;14.346;2023-09-19T09:51:33;99809.19;;;20.04;62.43
29569;BME280;16501;51.462;14.346;2023-09-19T09:54:16;99809.41;;;20.06;63.23
29569;BME280;16501;51.462;14.346;2023-09-19T09:56:58;99776.50;;;20.32;62.18
29569;BME280;16501;51.462;14.346;2023-09-19T09:59:48;99800.44;;;20.71;61.27
29569;BME280;16501;51.462;14.346;2023-09-19T10:02:28;99799.59;;;21.05;61.60
29569;BME280;16501;51.462;14.346;2023-09-19T10:05:17;99796.28;;;21.22;59.08
29569;BME280;16501;51.462;14.346;2023-09-19T10:07:46;99781.75;;;21.12;58.77
29569;BME280;16501;51.462;14.346;2023-09-19T10:10:32;99792.13;;;21.02;57.43
29569;BME280;16501;51.462;14.346;2023-09-19T10:13:11;99779.31;;;20.87;58.55
29569;BME280;16501;51.462;14.346;2023-09-19T10:15:51;99796.16;;;21.35;59.54
29569;BME280;16501;51.462;14.346;2023-09-19T10:18:23;99810.16;;;21.46;56.84
29569;BME280;16501;51.462;14.346;2023-09-19T10:20:49;99800.69;;;21.52;55.69
29569;BME280;16501;51.462;14.346;2023-09-19T10:23:17;99785.25;;;21.47;57.10
29569;BME280;16501;51.462;14.346;2023-09-19T10:25:48;99809.56;;;21.77;56.38
29569;BME280;16501;51.462;14.346;2023-09-19T10:28:16;99800.47;;;21.86;56.75
29569;BME280;16501;51.462;14.346;2023-09-19T10:30:46;99794.31;;;22.18;57.39
29569;BME280;16501;51.462;14.346;2023-09-19T10:33:13;99795.28;;;22.21;55.97
29569;BME280;16501;51.462;14.346;2023-09-19T10:35:43;99809.75;;;22.23;56.12
29569;BME280;16501;51.462;14.346;2023-09-19T10:38:11;99803.97;;;22.08;53.81
29569;BME280;16501;51.462;14.346;2023-09-19T10:40:38;99805.16;;;22.20;55.86
29569;BME280;16501;51.462;14.346;2023-09-19T10:43:12;99785.41;;;21.78;55.02
29569;BME280;16501;51.462;14.346;2023-09-19T10:45:41;99803.16;;;21.92;53.78
29569;BME280;16501;51.462;14.346;2023-09-19T10:48:08;99800.47;;;21.86;53.38
29569;BME280;16501;51.462;14.346;2023-09-19T10:50:53;99812.34;;;22.06;53.68
29569;BME280;16501;51.462;14.346;2023-09-19T10:53:24;99822.97;;;21.97;50.30
29569;BME280;16501;51.462;14.346;2023-09-19T10:55:59;99807.56;;;22.00;51.29
29569;BME280;16501;51.462;14.346;2023-09-19T10:58:29;99807.81;;;22.18;52.06
29569;BME280;16501;51.462;14.346;2023-09-19T11:00:58;99815.78;;;22.12;52.00
29569;BME280;16501;51.462;14.346;2023-09-19T11:03:30;99824.75;;;22.16;51.22
29569;BME280;16501;51.462;14.346;2023-09-19T11:06:02;99796.47;;;21.89;52.01
29569;BME280;16501;51.462;14.346;2023-09-19T11:08:54;99809.56;;;22.21;52.16
29569;BME280;16501;51.462;14.346;2023-09-19T11:11:49;99805.22;;;22.35;53.21
29569;BME280;16501;51.462;14.346;2023-09-19T11:30:37;99810.94;;;22.35;51.91
29569;BME280;16501;51.462;14.346;2023-09-19T11:33:16;99819.44;;;22.20;49.33
29569;BME280;16501;51.462;14.346;2023-09-19T11:36:13;99819.00;;;22.52;51.70
29569;BME280;16501;51.462;14.346;2023-09-19T11:43:52;99807.91;;;22.41;48.15
29569;BME280;16501;51.462;14.346;2023-09-19T11:46:20;99799.53;;;22.35;49.33
29569;BME280;16501;51.462;14.346;2023-09-19T11:48:48;99809.44;;;22.50;48.90
29569;BME280;16501;51.462;14.346;2023-09-19T11:51:19;99794.22;;;22.47;47.99
29569;BME280;16501;51.462;14.346;2023-09-19T11:53:47;99802.31;;;22.20;45.64
29569;BME280;16501;51.462;14.346;2023-09-19T11:56:21;99805.84;;;22.49;45.04
29569;BME280;16501;51.462;14.346;2023-09-19T11:58:49;99811.53;;;22.49;43.56
29569;BME280;16501;51.462;14.346;2023-09-19T12:01:28;99802.75;;;22.39;43.20
29569;BME280;16501;51.462;14.346;2023-09-19T12:03:56;99796.16;;;22.68;44.68
29569;BME280;16501;51.462;14.346;2023-09-19T12:06:23;99798.06;;;22.73;43.36
29569;BME280;16501;51.462;14.346;2023-09-19T12:08:49;99794.63;;;22.90;43.84
29569;BME280;16501;51.462;14.346;2023-09-19T12:11:16;99798.63;;;22.87;42.58
29569;BME280;16501;51.462;14.346;2023-09-19T12:13:57;99804.72;;;22.91;43.13
29569;BME280;16501;51.462;14.346;2023-09-19T12:16:25;99799.75;;;22.60;40.56
29569;BME280;16501;51.462;14.346;2023-09-19T12:18:51;99799.59;;;22.82;40.54
29569;BME280;16501;51.462;14.346;2023-09-19T12:21:30;99776.91;;;22.68;40.17
29569;BME280;16501;51.462;14.346;2023-09-19T12:26:39;99795.97;;;22.73;39.76
29569;BME280;16501;51.462;14.346;2023-09-19T12:29:10;99780.91;;;22.73;40.47
29569;BME280;16501;51.462;14.346;2023-09-19T12:31:36;99773.28;;;22.83;41.04
29569;BME280;16501;51.462;14.346;2023-09-19T12:34:02;99790.44;;;22.91;40.91
29569;BME280;16501;51.462;14.346;2023-09-19T12:36:27;99779.19;;;22.77;41.91
29569;BME280;16501;51.462;14.346;2023-09-19T12:38:58;99789.84;;;22.69;42.37
29569;BME280;16501;51.462;14.346;2023-09-19T12:41:25;99792.50;;;22.67;41.12
29569;BME280;16501;51.462;14.346;2023-09-19T12:43:51;99772.13;;;22.40;41.41
29569;BME280;16501;51.462;14.346;2023-09-19T12:46:20;99797.28;;;22.72;42.54
29569;BME280;16501;51.462;14.346;2023-09-19T12:49:18;99779.75;;;22.53;42.07
29569;BME280;16501;51.462;14.346;2023-09-19T12:51:45;99783.38;;;22.61;41.91
29569;BME280;16501;51.462;14.346;2023-09-19T12:54:10;99822.78;;;22.55;42.02
29569;BME280;16501;51.462;14.346;2023-09-19T12:56:40;99799.16;;;22.31;42.73
29569;BME280;16501;51.462;14.346;2023-09-19T12:59:11;99806.44;;;22.55;43.36
29569;BME280;16501;51.462;14.346;2023-09-19T13:01:38;99806.44;;;22.63;43.69
29569;BME280;16501;51.462;14.346;2023-09-19T13:04:20;99792.69;;;22.69;43.47
29569;BME280;16501;51.462;14.346;2023-09-19T13:06:51;99815.94;;;22.66;41.42
29569;BME280;16501;51.462;14.346;2023-09-19T13:09:17;99801.09;;;22.59;40.95
29569;BME280;16501;51.462;14.346;2023-09-19T13:11:43;99807.75;;;22.62;40.84
29569;BME280;16501;51.462;14.346;2023-09-19T13:14:23;99804.31;;;22.48;40.06
29569;BME280;16501;51.462;14.346;2023-09-19T13:17:06;99807.38;;;22.58;39.61
29569;BME280;16501;51.462;14.346;2023-09-19T13:19:51;99783.53;;;22.40;39.01
29569;BME280;16501;51.462;14.346;2023-09-19T13:22:44;99806.03;;;22.51;39.36
29569;BME280;16501;51.462;14.346;2023-09-19T13:25:20;99802.19;;;22.41;39.52
29569;BME280;16501;51.462;14.346;2023-09-19T13:30:12;99800.72;;;22.71;40.92
29569;BME280;16501;51.462;14.346;2023-09-19T13:32:38;99798.44;;;22.85;40.60
29569;BME280;16501;51.462;14.346;2023-09-19T13:35:05;99792.16;;;22.86;39.61
29569;BME280;16501;51.462;14.346;2023-09-19T13:37:33;99804.94;;;22.85;38.68
29569;BME280;16501;51.462;14.346;2023-09-19T13:40:00;99799.19;;;22.70;39.54
29569;BME280;16501;51.462;14.346;2023-09-19T13:42:26;99807.19;;;22.87;40.21
29569;BME280;16501;51.462;14.346;2023-09-19T13:44:55;99782.59;;;22.53;39.51
29569;BME280;16501;51.462;14.346;2023-09-19T13:47:20;99800.53;;;22.69;39.48
29569;BME280;16501;51.462;14.346;2023-09-19T13:49:49;99786.63;;;22.65;39.25